Home   Weather   Megève   Past weeks
Flag for France

Past Weather in Megève, Haute-Savoie, France — Yesterday and Last 2 Weeks

Currently: 72 °F. Passing clouds. (Weather station: Chambery / Aix-Les-Bains, France). See more current weather

Past Weather in Megève — Graph

°F

Megève Temperature Yesterday

Maximum temperature yesterday: 73 °F (at 5:00 pm)
Minimum temperature yesterday: 39 °F (at 6:30 am)
Average temperature yesterday: 55 °F

High & Low Weather Summary for the Past Weeks

 TemperatureHumidityPressure
High79 °F (Apr 5, 5:00 pm)100% (Mar 31, 4:30 am)30.54 "Hg (Mar 31, 4:30 am)
Low36 °F (Apr 11, 6:30 am)21% (Mar 30, 2:00 am)29.36 "Hg (Mar 31, 6:00 pm)
Average55 °F72%30.00 "Hg
* Reported Mar 29 12:00 pm — Apr 13 1:00 pm, Megève. Weather by CustomWeather, © 2024

Note: Actual official high and low records may vary slightly from our data, if they occured in-between our weather recording intervals... More about our weather records

Megève Weather History for the Previous 24 Hours

Scroll right to see more
 ConditionsComfort  
Time TempWeatherWind HumidityBarometerVisibility
1:00 pm
Sat, Apr 13
70 °FPassing clouds.5 mph57%30.36 "HgN/A
12:30 pm70 °FSunny.3 mph53%30.36 "Hg10 mi
12:00 pm66 °FPassing clouds.3 mph60%30.39 "HgN/A
11:30 am64 °FPassing clouds.5 mph64%30.39 "HgN/A
11:00 am64 °FSunny.2 mph64%30.39 "Hg10 mi
10:30 am63 °FSunny.1 mph73%30.42 "Hg10 mi
10:00 am61 °FSunny.1 mph77%30.42 "Hg10 mi
9:00 am54 °FSunny.No wind100%30.42 "Hg10 mi
8:30 am52 °FSunny.No wind100%30.42 "Hg10 mi
8:00 am46 °FSunny.2 mph100%30.42 "Hg10 mi
7:30 am46 °FLight fog.No wind100%30.42 "HgN/A
7:00 am46 °FClear.1 mph93%30.42 "Hg6 mi
6:30 am45 °FClear.2 mph100%30.42 "HgN/A
6:00 am45 °FClear.3 mph100%30.39 "Hg4 mi
5:30 am46 °FClear.No wind100%30.42 "Hg10 mi
5:00 am46 °FFog.2 mph93%30.39 "Hg1 mi
4:30 am46 °FClear.1 mph100%30.39 "HgN/A
4:00 am48 °FClear.1 mph94%30.39 "Hg10 mi
3:30 am48 °FClear.No wind100%30.42 "Hg4 mi
3:00 am48 °FClear.No wind94%30.42 "Hg10 mi
2:30 am48 °FClear.2 mph100%30.42 "Hg10 mi
2:00 am50 °FClear.2 mph94%30.42 "Hg10 mi
1:30 am50 °FClear.3 mph94%30.42 "Hg10 mi
1:00 am50 °FClear.2 mph100%30.42 "Hg10 mi
12:30 am52 °FClear.1 mph94%30.45 "Hg10 mi
12:00 am52 °FClear.2 mph94%30.42 "Hg10 mi
11:30 pm
Fri, Apr 12
54 °FClear.2 mph88%30.42 "Hg10 mi
11:00 pm55 °FClear.No wind82%30.42 "Hg10 mi
10:30 pm54 °FClear.No wind88%30.42 "Hg10 mi
10:00 pm57 °FClear.2 mph82%30.39 "Hg10 mi
9:30 pm59 °FClear.2 mph77%30.39 "Hg10 mi
9:00 pm57 °FPassing clouds.3 mph82%30.39 "HgN/A
8:30 pm63 °FClear.2 mph68%30.36 "Hg10 mi
8:00 pm63 °FSunny.3 mph68%30.36 "Hg10 mi
7:30 pm66 °FPassing clouds.3 mph64%30.36 "HgN/A
7:00 pm68 °FSunny.7 mph56%30.39 "Hg10 mi
6:30 pm70 °FPassing clouds.7 mph57%30.39 "HgN/A
6:00 pm70 °FSunny.7 mph57%30.39 "Hg10 mi
5:30 pm72 °FSunny.6 mph50%30.39 "Hg10 mi
5:00 pm73 °FPassing clouds.6 mph50%30.39 "HgN/A
4:00 pm72 °FPassing clouds.5 mph50%30.42 "HgN/A
3:30 pm70 °FPassing clouds.6 mph50%30.42 "HgN/A
3:00 pm68 °FSunny.7 mph56%30.45 "Hg10 mi
2:30 pm70 °FPassing clouds.5 mph50%30.45 "HgN/A
2:00 pm68 °FSunny.2 mph49%30.45 "Hg10 mi
Weather by CustomWeather, © 2024

See weather overview